sensor_id;sensor_type;location;lat;lon;timestamp;P1;durP1;ratioP1;P2;durP2;ratioP2
72109;SDS011;59983;52.010;5.420;2023-03-31T00:00:33;8.10;;;5.55;;
72109;SDS011;59983;52.010;5.420;2023-03-31T00:02:59;12.05;;;5.53;;
72109;SDS011;59983;52.010;5.420;2023-03-31T00:05:27;11.65;;;5.10;;
72109;SDS011;59983;52.010;5.420;2023-03-31T00:07:54;7.68;;;5.82;;
72109;SDS011;59983;52.010;5.420;2023-03-31T00:10:30;7.30;;;5.00;;
72109;SDS011;59983;52.010;5.420;2023-03-31T00:12:59;10.18;;;4.50;;
72109;SDS011;59983;52.010;5.420;2023-03-31T00:15:27;9.23;;;6.00;;
72109;SDS011;59983;52.010;5.420;2023-03-31T00:17:53;10.32;;;5.90;;
72109;SDS011;59983;52.010;5.420;2023-03-31T00:20:20;6.57;;;5.72;;
72109;SDS011;59983;52.010;5.420;2023-03-31T00:22:47;8.87;;;5.83;;
72109;SDS011;59983;52.010;5.420;2023-03-31T00:25:15;11.52;;;5.68;;
72109;SDS011;59983;52.010;5.420;2023-03-31T00:27:42;8.65;;;6.18;;
72109;SDS011;59983;52.010;5.420;2023-03-31T00:30:10;7.30;;;5.55;;
72109;SDS011;59983;52.010;5.420;2023-03-31T00:32:40;7.28;;;5.43;;
72109;SDS011;59983;52.010;5.420;2023-03-31T00:35:07;9.53;;;4.60;;
72109;SDS011;59983;52.010;5.420;2023-03-31T00:37:34;6.75;;;4.93;;
72109;SDS011;59983;52.010;5.420;2023-03-31T00:40:01;9.95;;;5.30;;
72109;SDS011;59983;52.010;5.420;2023-03-31T00:42:31;8.85;;;5.75;;
72109;SDS011;59983;52.010;5.420;2023-03-31T00:47:43;17.70;;;6.13;;
72109;SDS011;59983;52.010;5.420;2023-03-31T00:50:22;5.55;;;5.05;;
72109;SDS011;59983;52.010;5.420;2023-03-31T00:52:55;7.22;;;5.60;;
72109;SDS011;59983;52.010;5.420;2023-03-31T00:55:29;5.65;;;4.47;;
72109;SDS011;59983;52.010;5.420;2023-03-31T00:57:59;10.35;;;5.10;;
72109;SDS011;59983;52.010;5.420;2023-03-31T01:00:27;4.93;;;4.53;;
72109;SDS011;59983;52.010;5.420;2023-03-31T01:02:55;9.88;;;5.45;;
72109;SDS011;59983;52.010;5.420;2023-03-31T01:05:32;7.07;;;5.18;;
72109;SDS011;59983;52.010;5.420;2023-03-31T01:08:02;5.97;;;5.28;;
72109;SDS011;59983;52.010;5.420;2023-03-31T01:10:32;5.78;;;5.28;;
72109;SDS011;59983;52.010;5.420;2023-03-31T01:13:09;5.50;;;5.00;;
72109;SDS011;59983;52.010;5.420;2023-03-31T01:15:38;6.53;;;5.68;;
72109;SDS011;59983;52.010;5.420;2023-03-31T01:18:05;8.27;;;5.70;;
72109;SDS011;59983;52.010;5.420;2023-03-31T01:40:58;9.67;;;6.30;;
72109;SDS011;59983;52.010;5.420;2023-03-31T01:43:40;7.72;;;6.05;;
72109;SDS011;59983;52.010;5.420;2023-03-31T01:51:44;9.80;;;6.22;;
72109;SDS011;59983;52.010;5.420;2023-03-31T01:57:16;5.50;;;4.85;;
72109;SDS011;59983;52.010;5.420;2023-03-31T02:02:31;9.57;;;5.57;;
72109;SDS011;59983;52.010;5.420;2023-03-31T02:05:06;9.30;;;5.40;;
72109;SDS011;59983;52.010;5.420;2023-03-31T02:07:42;9.90;;;6.07;;
72109;SDS011;59983;52.010;5.420;2023-03-31T02:10:15;13.25;;;4.95;;
72109;SDS011;59983;52.010;5.420;2023-03-31T02:12:43;11.40;;;5.63;;
72109;SDS011;59983;52.010;5.420;2023-03-31T02:15:12;12.68;;;6.22;;
72109;SDS011;59983;52.010;5.420;2023-03-31T02:17:44;9.25;;;6.03;;
72109;SDS011;59983;52.010;5.420;2023-03-31T02:20:13;6.87;;;5.43;;
72109;SDS011;59983;52.010;5.420;2023-03-31T02:22:45;7.15;;;5.85;;
72109;SDS011;59983;52.010;5.420;2023-03-31T02:25:16;8.52;;;5.57;;
72109;SDS011;59983;52.010;5.420;2023-03-31T02:27:54;12.52;;;6.15;;
72109;SDS011;59983;52.010;5.420;2023-03-31T02:30:27;13.02;;;6.93;;
72109;SDS011;59983;52.010;5.420;2023-03-31T02:33:04;9.87;;;5.40;;
72109;SDS011;59983;52.010;5.420;2023-03-31T02:35:31;7.70;;;5.80;;
72109;SDS011;59983;52.010;5.420;2023-03-31T02:38:00;9.75;;;6.30;;
72109;SDS011;59983;52.010;5.420;2023-03-31T02:40:27;8.30;;;5.75;;
72109;SDS011;59983;52.010;5.420;2023-03-31T02:42:55;12.48;;;6.57;;
72109;SDS011;59983;52.010;5.420;2023-03-31T02:48:01;10.00;;;5.10;;
72109;SDS011;59983;52.010;5.420;2023-03-31T02:50:29;10.93;;;5.78;;
72109;SDS011;59983;52.010;5.420;2023-03-31T02:53:07;7.70;;;5.00;;
72109;SDS011;59983;52.010;5.420;2023-03-31T03:03:56;13.00;;;6.05;;
72109;SDS011;59983;52.010;5.420;2023-03-31T03:09:20;8.65;;;5.72;;
72109;SDS011;59983;52.010;5.420;2023-03-31T03:12:26;10.07;;;5.33;;
72109;SDS011;59983;52.010;5.420;2023-03-31T03:15:12;10.85;;;5.57;;
72109;SDS011;59983;52.010;5.420;2023-03-31T03:17:46;10.65;;;5.95;;
72109;SDS011;59983;52.010;5.420;2023-03-31T03:20:14;7.45;;;5.22;;
72109;SDS011;59983;52.010;5.420;2023-03-31T03:22:41;6.93;;;6.05;;
72109;SDS011;59983;52.010;5.420;2023-03-31T03:25:09;9.70;;;5.53;;
72109;SDS011;59983;52.010;5.420;2023-03-31T03:27:37;15.10;;;4.45;;
72109;SDS011;59983;52.010;5.420;2023-03-31T03:30:05;8.45;;;4.80;;
72109;SDS011;59983;52.010;5.420;2023-03-31T03:32:33;6.65;;;4.63;;
72109;SDS011;59983;52.010;5.420;2023-03-31T03:35:00;7.28;;;5.95;;
72109;SDS011;59983;52.010;5.420;2023-03-31T03:37:29;6.60;;;5.50;;
72109;SDS011;59983;52.010;5.420;2023-03-31T03:39:56;8.55;;;5.22;;
72109;SDS011;59983;52.010;5.420;2023-03-31T03:42:23;6.13;;;5.50;;
72109;SDS011;59983;52.010;5.420;2023-03-31T03:44:49;7.25;;;5.15;;
72109;SDS011;59983;52.010;5.420;2023-03-31T03:47:16;6.68;;;5.97;;
72109;SDS011;59983;52.010;5.420;2023-03-31T03:49:43;7.40;;;4.87;;
72109;SDS011;59983;52.010;5.420;2023-03-31T03:52:10;7.43;;;5.68;;
72109;SDS011;59983;52.010;5.420;2023-03-31T03:54:36;6.95;;;4.65;;
72109;SDS011;59983;52.010;5.420;2023-03-31T03:57:03;6.53;;;4.88;;
72109;SDS011;59983;52.010;5.420;2023-03-31T03:59:29;5.82;;;5.10;;
72109;SDS011;59983;52.010;5.420;2023-03-31T04:01:56;5.10;;;4.73;;
72109;SDS011;59983;52.010;5.420;2023-03-31T04:04:23;5.05;;;4.57;;
72109;SDS011;59983;52.010;5.420;2023-03-31T04:06:49;5.35;;;4.97;;
72109;SDS011;59983;52.010;5.420;2023-03-31T04:09:16;6.55;;;4.50;;
72109;SDS011;59983;52.010;5.420;2023-03-31T04:11:42;5.35;;;4.88;;
72109;SDS011;59983;52.010;5.420;2023-03-31T04:14:09;5.17;;;4.77;;
72109;SDS011;59983;52.010;5.420;2023-03-31T04:16:35;7.40;;;4.55;;
72109;SDS011;59983;52.010;5.420;2023-03-31T04:19:03;5.97;;;5.50;;
72109;SDS011;59983;52.010;5.420;2023-03-31T04:21:30;9.00;;;5.35;;
72109;SDS011;59983;52.010;5.420;2023-03-31T04:24:00;8.88;;;5.05;;
72109;SDS011;59983;52.010;5.420;2023-03-31T04:26:30;10.07;;;5.90;;
72109;SDS011;59983;52.010;5.420;2023-03-31T04:29:09;6.85;;;5.03;;
72109;SDS011;59983;52.010;5.420;2023-03-31T04:31:38;8.73;;;5.25;;
72109;SDS011;59983;52.010;5.420;2023-03-31T04:34:08;7.55;;;4.88;;
72109;SDS011;59983;52.010;5.420;2023-03-31T04:36:43;9.02;;;6.65;;
72109;SDS011;59983;52.010;5.420;2023-03-31T04:39:16;10.47;;;6.17;;
72109;SDS011;59983;52.010;5.420;2023-03-31T04:41:52;8.05;;;5.97;;
72109;SDS011;59983;52.010;5.420;2023-03-31T04:44:19;12.55;;;6.30;;
72109;SDS011;59983;52.010;5.420;2023-03-31T04:46:45;8.35;;;6.28;;
72109;SDS011;59983;52.010;5.420;2023-03-31T04:49:12;11.80;;;7.75;;
72109;SDS011;59983;52.010;5.420;2023-03-31T04:51:38;11.47;;;5.80;;
72109;SDS011;59983;52.010;5.420;2023-03-31T04:54:05;10.77;;;7.15;;
72109;SDS011;59983;52.010;5.420;2023-03-31T04:56:32;8.95;;;7.28;;
72109;SDS011;59983;52.010;5.420;2023-03-31T04:58:59;10.85;;;5.88;;
72109;SDS011;59983;52.010;5.420;2023-03-31T05:01:25;9.45;;;6.68;;
72109;SDS011;59983;52.010;5.420;2023-03-31T05:03:52;7.50;;;6.37;;
72109;SDS011;59983;52.010;5.420;2023-03-31T05:06:18;10.82;;;6.85;;
72109;SDS011;59983;52.010;5.420;2023-03-31T05:08:45;7.78;;;5.68;;
72109;SDS011;59983;52.010;5.420;2023-03-31T05:11:11;9.80;;;5.47;;
72109;SDS011;59983;52.010;5.420;2023-03-31T05:13:38;7.30;;;5.47;;
72109;SDS011;59983;52.010;5.420;2023-03-31T05:16:05;9.53;;;5.67;;
72109;SDS011;59983;52.010;5.420;2023-03-31T05:18:34;7.05;;;5.68;;
72109;SDS011;59983;52.010;5.420;2023-03-31T05:21:11;9.00;;;6.45;;
72109;SDS011;59983;52.010;5.420;2023-03-31T05:23:42;10.85;;;6.18;;
72109;SDS011;59983;52.010;5.420;2023-03-31T05:26:09;11.57;;;6.15;;
72109;SDS011;59983;52.010;5.420;2023-03-31T05:28:36;7.43;;;5.57;;
72109;SDS011;59983;52.010;5.420;2023-03-31T05:31:03;6.40;;;5.30;;
72109;SDS011;59983;52.010;5.420;2023-03-31T05:33:31;6.38;;;5.78;;
72109;SDS011;59983;52.010;5.420;2023-03-31T05:35:59;5.75;;;5.25;;
72109;SDS011;59983;52.010;5.420;2023-03-31T05:38:26;6.97;;;6.10;;
72109;SDS011;59983;52.010;5.420;2023-03-31T05:40:56;14.57;;;5.63;;
72109;SDS011;59983;52.010;5.420;2023-03-31T05:43:23;7.18;;;5.90;;
72109;SDS011;59983;52.010;5.420;2023-03-31T05:45:50;5.90;;;5.40;;
72109;SDS011;59983;52.010;5.420;2023-03-31T05:48:16;6.97;;;4.80;;
72109;SDS011;59983;52.010;5.420;2023-03-31T05:50:43;9.40;;;5.38;;
72109;SDS011;59983;52.010;5.420;2023-03-31T05:53:10;5.90;;;5.07;;
72109;SDS011;59983;52.010;5.420;2023-03-31T05:55:36;6.88;;;5.28;;
72109;SDS011;59983;52.010;5.420;2023-03-31T05:58:03;6.70;;;5.47;;
72109;SDS011;59983;52.010;5.420;2023-03-31T06:00:30;8.20;;;5.63;;
72109;SDS011;59983;52.010;5.420;2023-03-31T06:02:57;6.70;;;5.40;;
72109;SDS011;59983;52.010;5.420;2023-03-31T06:05:24;5.17;;;4.67;;
72109;SDS011;59983;52.010;5.420;2023-03-31T06:07:56;11.60;;;5.32;;
72109;SDS011;59983;52.010;5.420;2023-03-31T06:10:23;5.70;;;5.22;;
72109;SDS011;59983;52.010;5.420;2023-03-31T06:12:49;7.05;;;4.70;;
72109;SDS011;59983;52.010;5.420;2023-03-31T06:15:16;5.45;;;5.13;;
72109;SDS011;59983;52.010;5.420;2023-03-31T06:17:42;5.93;;;4.87;;
72109;SDS011;59983;52.010;5.420;2023-03-31T06:20:09;5.65;;;5.18;;
72109;SDS011;59983;52.010;5.420;2023-03-31T06:22:52;5.57;;;5.13;;
72109;SDS011;59983;52.010;5.420;2023-03-31T06:25:18;7.85;;;5.55;;
72109;SDS011;59983;52.010;5.420;2023-03-31T06:27:45;5.55;;;5.10;;
72109;SDS011;59983;52.010;5.420;2023-03-31T06:30:11;4.27;;;3.97;;
72109;SDS011;59983;52.010;5.420;2023-03-31T06:32:38;6.15;;;4.80;;
72109;SDS011;59983;52.010;5.420;2023-03-31T06:35:05;5.65;;;5.35;;
72109;SDS011;59983;52.010;5.420;2023-03-31T06:37:32;5.50;;;5.07;;
72109;SDS011;59983;52.010;5.420;2023-03-31T06:39:58;7.38;;;4.97;;
72109;SDS011;59983;52.010;5.420;2023-03-31T06:42:25;5.10;;;4.50;;
72109;SDS011;59983;52.010;5.420;2023-03-31T06:44:51;5.13;;;4.80;;
72109;SDS011;59983;52.010;5.420;2023-03-31T06:47:18;6.20;;;4.78;;
72109;SDS011;59983;52.010;5.420;2023-03-31T06:49:44;4.88;;;4.32;;
72109;SDS011;59983;52.010;5.420;2023-03-31T06:52:11;5.93;;;5.07;;
72109;SDS011;59983;52.010;5.420;2023-03-31T06:54:37;6.90;;;4.83;;
72109;SDS011;59983;52.010;5.420;2023-03-31T06:57:04;5.10;;;4.43;;
72109;SDS011;59983;52.010;5.420;2023-03-31T06:59:31;5.28;;;4.88;;
72109;SDS011;59983;52.010;5.420;2023-03-31T07:01:57;5.07;;;4.53;;
72109;SDS011;59983;52.010;5.420;2023-03-31T07:04:24;5.13;;;4.38;;
72109;SDS011;59983;52.010;5.420;2023-03-31T07:06:50;7.53;;;4.33;;
72109;SDS011;59983;52.010;5.420;2023-03-31T07:09:17;5.35;;;4.85;;
72109;SDS011;59983;52.010;5.420;2023-03-31T07:11:43;5.28;;;4.88;;
72109;SDS011;59983;52.010;5.420;2023-03-31T07:14:10;4.78;;;4.45;;
72109;SDS011;59983;52.010;5.420;2023-03-31T07:16:37;4.70;;;4.30;;
72109;SDS011;59983;52.010;5.420;2023-03-31T07:19:05;6.23;;;4.17;;
72109;SDS011;59983;52.010;5.420;2023-03-31T07:21:32;4.00;;;3.67;;
72109;SDS011;59983;52.010;5.420;2023-03-31T07:23:59;5.35;;;4.90;;
72109;SDS011;59983;52.010;5.420;2023-03-31T07:26:25;5.20;;;4.55;;
72109;SDS011;59983;52.010;5.420;2023-03-31T07:28:52;10.48;;;5.13;;
72109;SDS011;59983;52.010;5.420;2023-03-31T07:31:21;5.40;;;4.90;;
72109;SDS011;59983;52.010;5.420;2023-03-31T07:33:48;5.47;;;4.78;;
72109;SDS011;59983;52.010;5.420;2023-03-31T07:36:15;5.95;;;5.40;;
72109;SDS011;59983;52.010;5.420;2023-03-31T07:38:43;7.72;;;4.57;;
72109;SDS011;59983;52.010;5.420;2023-03-31T07:41:13;8.15;;;5.53;;
72109;SDS011;59983;52.010;5.420;2023-03-31T07:43:41;5.73;;;4.90;;
72109;SDS011;59983;52.010;5.420;2023-03-31T07:46:18;4.82;;;4.53;;
72109;SDS011;59983;52.010;5.420;2023-03-31T07:48:47;6.93;;;5.75;;
72109;SDS011;59983;52.010;5.420;2023-03-31T07:51:15;4.88;;;4.32;;
72109;SDS011;59983;52.010;5.420;2023-03-31T07:53:43;5.93;;;4.65;;
72109;SDS011;59983;52.010;5.420;2023-03-31T07:56:11;4.77;;;4.37;;
72109;SDS011;59983;52.010;5.420;2023-03-31T07:58:37;5.70;;;4.55;;
72109;SDS011;59983;52.010;5.420;2023-03-31T08:01:04;6.05;;;5.55;;
72109;SDS011;59983;52.010;5.420;2023-03-31T08:03:31;7.00;;;4.88;;
72109;SDS011;59983;52.010;5.420;2023-03-31T08:05:59;10.32;;;5.50;;
72109;SDS011;59983;52.010;5.420;2023-03-31T08:08:26;6.97;;;4.90;;
72109;SDS011;59983;52.010;5.420;2023-03-31T08:10:53;5.22;;;4.65;;
72109;SDS011;59983;52.010;5.420;2023-03-31T08:13:19;6.82;;;4.28;;
72109;SDS011;59983;52.010;5.420;2023-03-31T08:15:46;6.13;;;5.38;;
72109;SDS011;59983;52.010;5.420;2023-03-31T08:18:12;5.30;;;4.85;;
72109;SDS011;59983;52.010;5.420;2023-03-31T08:20:39;5.30;;;4.90;;
72109;SDS011;59983;52.010;5.420;2023-03-31T08:23:06;5.80;;;4.95;;
72109;SDS011;59983;52.010;5.420;2023-03-31T08:25:34;7.40;;;5.13;;
72109;SDS011;59983;52.010;5.420;2023-03-31T08:28:00;8.30;;;5.30;;
72109;SDS011;59983;52.010;5.420;2023-03-31T08:30:27;6.05;;;5.50;;
72109;SDS011;59983;52.010;5.420;2023-03-31T08:32:53;5.57;;;5.07;;
72109;SDS011;59983;52.010;5.420;2023-03-31T08:35:20;9.40;;;5.15;;
72109;SDS011;59983;52.010;5.420;2023-03-31T08:37:46;12.45;;;5.72;;
72109;SDS011;59983;52.010;5.420;2023-03-31T08:40:13;7.68;;;4.72;;
72109;SDS011;59983;52.010;5.420;2023-03-31T08:42:45;10.77;;;6.38;;
72109;SDS011;59983;52.010;5.420;2023-03-31T08:45:17;21.57;;;7.03;;
72109;SDS011;59983;52.010;5.420;2023-03-31T08:47:48;17.20;;;5.97;;
72109;SDS011;59983;52.010;5.420;2023-03-31T08:50:20;14.43;;;7.38;;
72109;SDS011;59983;52.010;5.420;2023-03-31T08:55:48;14.02;;;7.10;;
72109;SDS011;59983;52.010;5.420;2023-03-31T08:58:39;18.23;;;6.00;;
72109;SDS011;59983;52.010;5.420;2023-03-31T09:08:57;14.40;;;5.47;;
72109;SDS011;59983;52.010;5.420;2023-03-31T09:16:53;15.38;;;6.35;;
72109;SDS011;59983;52.010;5.420;2023-03-31T09:19:30;17.77;;;6.57;;
72109;SDS011;59983;52.010;5.420;2023-03-31T09:22:01;14.80;;;6.15;;
72109;SDS011;59983;52.010;5.420;2023-03-31T09:24:38;16.27;;;6.00;;
72109;SDS011;59983;52.010;5.420;2023-03-31T09:27:20;16.42;;;5.35;;
72109;SDS011;59983;52.010;5.420;2023-03-31T09:29:52;12.88;;;7.10;;
72109;SDS011;59983;52.010;5.420;2023-03-31T09:32:29;14.13;;;6.40;;
72109;SDS011;59983;52.010;5.420;2023-03-31T09:37:58;8.97;;;5.70;;
72109;SDS011;59983;52.010;5.420;2023-03-31T09:40:26;11.45;;;5.65;;
72109;SDS011;59983;52.010;5.420;2023-03-31T09:43:04;10.45;;;6.07;;
72109;SDS011;59983;52.010;5.420;2023-03-31T09:45:32;6.90;;;5.45;;
72109;SDS011;59983;52.010;5.420;2023-03-31T09:48:03;10.65;;;5.28;;
72109;SDS011;59983;52.010;5.420;2023-03-31T09:50:39;17.10;;;6.83;;
72109;SDS011;59983;52.010;5.420;2023-03-31T09:53:21;14.07;;;5.28;;
72109;SDS011;59983;52.010;5.420;2023-03-31T09:55:59;9.07;;;6.20;;
72109;SDS011;59983;52.010;5.420;2023-03-31T09:58:28;13.23;;;5.60;;
72109;SDS011;59983;52.010;5.420;2023-03-31T10:00:55;17.17;;;6.32;;
72109;SDS011;59983;52.010;5.420;2023-03-31T10:03:26;15.10;;;5.43;;
72109;SDS011;59983;52.010;5.420;2023-03-31T10:05:55;8.90;;;5.22;;
72109;SDS011;59983;52.010;5.420;2023-03-31T10:16:06;7.90;;;5.10;;
72109;SDS011;59983;52.010;5.420;2023-03-31T10:18:39;9.65;;;5.43;;
72109;SDS011;59983;52.010;5.420;2023-03-31T10:21:20;16.63;;;7.43;;
72109;SDS011;59983;52.010;5.420;2023-03-31T10:23:48;16.98;;;6.15;;
72109;SDS011;59983;52.010;5.420;2023-03-31T10:26:16;15.75;;;5.10;;
72109;SDS011;59983;52.010;5.420;2023-03-31T10:28:46;5.97;;;4.80;;
72109;SDS011;59983;52.010;5.420;2023-03-31T10:31:17;14.13;;;4.95;;
72109;SDS011;59983;52.010;5.420;2023-03-31T10:33:47;8.68;;;4.90;;
72109;SDS011;59983;52.010;5.420;2023-03-31T10:36:25;15.90;;;4.38;;
72109;SDS011;59983;52.010;5.420;2023-03-31T10:38:54;10.35;;;5.18;;
72109;SDS011;59983;52.010;5.420;2023-03-31T10:41:22;12.77;;;5.40;;
72109;SDS011;59983;52.010;5.420;2023-03-31T10:43:53;13.20;;;4.35;;
72109;SDS011;59983;52.010;5.420;2023-03-31T10:46:41;12.48;;;6.28;;
72109;SDS011;59983;52.010;5.420;2023-03-31T10:49:23;7.70;;;4.35;;
72109;SDS011;59983;52.010;5.420;2023-03-31T10:51:52;9.90;;;4.95;;
72109;SDS011;59983;52.010;5.420;2023-03-31T10:54:20;7.50;;;4.73;;
72109;SDS011;59983;52.010;5.420;2023-03-31T10:56:51;10.20;;;4.38;;
72109;SDS011;59983;52.010;5.420;2023-03-31T10:59:36;6.07;;;4.35;;
72109;SDS011;59983;52.010;5.420;2023-03-31T11:05:15;8.60;;;4.45;;
72109;SDS011;59983;52.010;5.420;2023-03-31T11:07:47;10.83;;;4.27;;
72109;SDS011;59983;52.010;5.420;2023-03-31T11:16:39;12.40;;;4.72;;
72109;SDS011;59983;52.010;5.420;2023-03-31T11:25:08;12.73;;;5.25;;
72109;SDS011;59983;52.010;5.420;2023-03-31T11:30:21;6.15;;;4.72;;
72109;SDS011;59983;52.010;5.420;2023-03-31T11:38:43;11.52;;;5.22;;
72109;SDS011;59983;52.010;5.420;2023-03-31T11:41:48;13.18;;;5.80;;
72109;SDS011;59983;52.010;5.420;2023-03-31T11:44:18;16.33;;;5.55;;
72109;SDS011;59983;52.010;5.420;2023-03-31T11:49:19;8.83;;;5.47;;
72109;SDS011;59983;52.010;5.420;2023-03-31T11:52:04;14.48;;;6.32;;
72109;SDS011;59983;52.010;5.420;2023-03-31T11:57:20;10.80;;;5.15;;
72109;SDS011;59983;52.010;5.420;2023-03-31T12:00:05;17.25;;;5.20;;
72109;SDS011;59983;52.010;5.420;2023-03-31T12:05:21;10.70;;;5.90;;
72109;SDS011;59983;52.010;5.420;2023-03-31T12:08:00;12.15;;;6.28;;
72109;SDS011;59983;52.010;5.420;2023-03-31T12:10:40;9.30;;;5.03;;
72109;SDS011;59983;52.010;5.420;2023-03-31T12:15:57;8.37;;;5.30;;
72109;SDS011;59983;52.010;5.420;2023-03-31T12:18:42;11.38;;;5.47;;
72109;SDS011;59983;52.010;5.420;2023-03-31T12:21:21;9.30;;;5.32;;
72109;SDS011;59983;52.010;5.420;2023-03-31T12:23:50;11.25;;;5.55;;
72109;SDS011;59983;52.010;5.420;2023-03-31T12:26:34;15.18;;;6.13;;
72109;SDS011;59983;52.010;5.420;2023-03-31T12:29:18;12.30;;;5.53;;
72109;SDS011;59983;52.010;5.420;2023-03-31T12:32:13;9.55;;;5.80;;
72109;SDS011;59983;52.010;5.420;2023-03-31T12:34:44;14.90;;;6.20;;
72109;SDS011;59983;52.010;5.420;2023-03-31T12:40:33;15.35;;;6.45;;
72109;SDS011;59983;52.010;5.420;2023-03-31T12:51:36;10.77;;;6.00;;
72109;SDS011;59983;52.010;5.420;2023-03-31T12:57:18;8.87;;;5.40;;
72109;SDS011;59983;52.010;5.420;2023-03-31T13:02:39;11.43;;;5.85;;
72109;SDS011;59983;52.010;5.420;2023-03-31T13:08:04;11.35;;;4.68;;
72109;SDS011;59983;52.010;5.420;2023-03-31T13:10:51;17.77;;;5.73;;
72109;SDS011;59983;52.010;5.420;2023-03-31T13:13:23;11.00;;;4.45;;
72109;SDS011;59983;52.010;5.420;2023-03-31T13:15:51;8.30;;;5.05;;
72109;SDS011;59983;52.010;5.420;2023-03-31T13:18:21;11.98;;;5.15;;
72109;SDS011;59983;52.010;5.420;2023-03-31T13:21:01;10.63;;;4.72;;
72109;SDS011;59983;52.010;5.420;2023-03-31T13:23:34;11.13;;;4.83;;
72109;SDS011;59983;52.010;5.420;2023-03-31T13:26:02;11.13;;;5.13;;
72109;SDS011;59983;52.010;5.420;2023-03-31T13:28:38;7.53;;;5.43;;
72109;SDS011;59983;52.010;5.420;2023-03-31T13:31:10;9.45;;;4.60;;
72109;SDS011;59983;52.010;5.420;2023-03-31T13:33:57;7.97;;;4.90;;
72109;SDS011;59983;52.010;5.420;2023-03-31T13:36:48;10.37;;;4.37;;
72109;SDS011;59983;52.010;5.420;2023-03-31T14:06:31;7.30;;;4.70;;
72109;SDS011;59983;52.010;5.420;2023-03-31T14:09:04;12.35;;;5.60;;
72109;SDS011;59983;52.010;5.420;2023-03-31T14:11:34;12.60;;;5.95;;
72109;SDS011;59983;52.010;5.420;2023-03-31T14:16:50;8.83;;;5.33;;
72109;SDS011;59983;52.010;5.420;2023-03-31T14:22:27;5.40;;;5.07;;
72109;SDS011;59983;52.010;5.420;2023-03-31T14:25:04;5.63;;;4.22;;
72109;SDS011;59983;52.010;5.420;2023-03-31T14:38:13;6.22;;;4.95;;
72109;SDS011;59983;52.010;5.420;2023-03-31T14:40:45;4.28;;;3.95;;
72109;SDS011;59983;52.010;5.420;2023-03-31T14:43:18;4.77;;;4.17;;
72109;SDS011;59983;52.010;5.420;2023-03-31T14:45:51;5.20;;;4.82;;
72109;SDS011;59983;52.010;5.420;2023-03-31T14:48:34;5.78;;;4.88;;
72109;SDS011;59983;52.010;5.420;2023-03-31T14:51:10;4.05;;;3.80;;
72109;SDS011;59983;52.010;5.420;2023-03-31T14:53:39;6.20;;;4.35;;
72109;SDS011;59983;52.010;5.420;2023-03-31T14:56:13;4.23;;;3.93;;
72109;SDS011;59983;52.010;5.420;2023-03-31T14:58:42;4.88;;;4.47;;
72109;SDS011;59983;52.010;5.420;2023-03-31T15:01:17;5.18;;;4.38;;
72109;SDS011;59983;52.010;5.420;2023-03-31T15:03:49;6.80;;;5.00;;
72109;SDS011;59983;52.010;5.420;2023-03-31T15:06:18;5.55;;;5.05;;
72109;SDS011;59983;52.010;5.420;2023-03-31T15:08:44;4.53;;;4.07;;
72109;SDS011;59983;52.010;5.420;2023-03-31T15:11:13;4.78;;;3.95;;
72109;SDS011;59983;52.010;5.420;2023-03-31T15:13:46;8.15;;;5.18;;
72109;SDS011;59983;52.010;5.420;2023-03-31T15:21:52;5.23;;;4.70;;
72109;SDS011;59983;52.010;5.420;2023-03-31T15:24:35;4.82;;;4.43;;
72109;SDS011;59983;52.010;5.420;2023-03-31T15:27:03;5.80;;;5.32;;
72109;SDS011;59983;52.010;5.420;2023-03-31T15:29:43;5.40;;;4.80;;
72109;SDS011;59983;52.010;5.420;2023-03-31T15:32:13;5.32;;;4.93;;
72109;SDS011;59983;52.010;5.420;2023-03-31T15:34:49;4.93;;;4.47;;
72109;SDS011;59983;52.010;5.420;2023-03-31T15:37:20;6.22;;;5.70;;
72109;SDS011;59983;52.010;5.420;2023-03-31T15:39:56;4.93;;;4.50;;
72109;SDS011;59983;52.010;5.420;2023-03-31T15:42:25;5.63;;;4.70;;
72109;SDS011;59983;52.010;5.420;2023-03-31T15:44:54;5.40;;;5.00;;
72109;SDS011;59983;52.010;5.420;2023-03-31T15:47:39;7.60;;;4.40;;
72109;SDS011;59983;52.010;5.420;2023-03-31T15:50:14;4.60;;;4.20;;
72109;SDS011;59983;52.010;5.420;2023-03-31T15:52:48;4.30;;;4.00;;
72109;SDS011;59983;52.010;5.420;2023-03-31T15:55:24;6.10;;;4.13;;
72109;SDS011;59983;52.010;5.420;2023-03-31T15:57:57;5.63;;;4.93;;
72109;SDS011;59983;52.010;5.420;2023-03-31T16:03:15;4.75;;;4.38;;
72109;SDS011;59983;52.010;5.420;2023-03-31T16:05:53;5.80;;;4.18;;
72109;SDS011;59983;52.010;5.420;2023-03-31T16:11:07;5.03;;;4.82;;
72109;SDS011;59983;52.010;5.420;2023-03-31T16:13:39;4.70;;;3.90;;
72109;SDS011;59983;52.010;5.420;2023-03-31T16:16:09;5.15;;;4.85;;
72109;SDS011;59983;52.010;5.420;2023-03-31T16:18:41;4.70;;;4.50;;
72109;SDS011;59983;52.010;5.420;2023-03-31T16:21:12;5.28;;;4.88;;
72109;SDS011;59983;52.010;5.420;2023-03-31T16:23:41;4.35;;;4.15;;
72109;SDS011;59983;52.010;5.420;2023-03-31T16:26:10;5.60;;;5.07;;
72109;SDS011;59983;52.010;5.420;2023-03-31T16:28:38;4.32;;;4.13;;
72109;SDS011;59983;52.010;5.420;2023-03-31T16:31:04;6.13;;;5.75;;
72109;SDS011;59983;52.010;5.420;2023-03-31T16:34:09;4.75;;;4.45;;
72109;SDS011;59983;52.010;5.420;2023-03-31T16:36:36;4.85;;;4.45;;
72109;SDS011;59983;52.010;5.420;2023-03-31T16:39:04;5.17;;;4.87;;
72109;SDS011;59983;52.010;5.420;2023-03-31T16:41:32;4.10;;;3.88;;
72109;SDS011;59983;52.010;5.420;2023-03-31T16:44:00;5.55;;;5.18;;
72109;SDS011;59983;52.010;5.420;2023-03-31T16:46:26;5.40;;;5.10;;
72109;SDS011;59983;52.010;5.420;2023-03-31T16:48:53;5.75;;;5.05;;
72109;SDS011;59983;52.010;5.420;2023-03-31T16:51:20;5.70;;;5.33;;
72109;SDS011;59983;52.010;5.420;2023-03-31T16:53:47;5.03;;;4.82;;
72109;SDS011;59983;52.010;5.420;2023-03-31T16:56:14;4.95;;;4.80;;
72109;SDS011;59983;52.010;5.420;2023-03-31T16:58:41;5.43;;;5.13;;
72109;SDS011;59983;52.010;5.420;2023-03-31T17:01:08;5.65;;;5.35;;
72109;SDS011;59983;52.010;5.420;2023-03-31T17:03:35;4.87;;;4.57;;
72109;SDS011;59983;52.010;5.420;2023-03-31T17:06:06;5.63;;;5.32;;
72109;SDS011;59983;52.010;5.420;2023-03-31T17:08:35;5.63;;;5.32;;
72109;SDS011;59983;52.010;5.420;2023-03-31T17:11:04;5.68;;;5.43;;
72109;SDS011;59983;52.010;5.420;2023-03-31T17:13:32;4.57;;;4.38;;
72109;SDS011;59983;52.010;5.420;2023-03-31T17:15:59;5.73;;;5.27;;
72109;SDS011;59983;52.010;5.420;2023-03-31T17:18:41;6.50;;;6.18;;
72109;SDS011;59983;52.010;5.420;2023-03-31T17:21:08;6.35;;;6.05;;
72109;SDS011;59983;52.010;5.420;2023-03-31T17:23:37;6.68;;;4.93;;
72109;SDS011;59983;52.010;5.420;2023-03-31T17:26:04;6.40;;;6.03;;
72109;SDS011;59983;52.010;5.420;2023-03-31T17:28:32;5.93;;;5.20;;
72109;SDS011;59983;52.010;5.420;2023-03-31T17:30:59;5.93;;;5.50;;
72109;SDS011;59983;52.010;5.420;2023-03-31T17:33:25;6.15;;;5.85;;
72109;SDS011;59983;52.010;5.420;2023-03-31T17:35:56;5.68;;;5.18;;
72109;SDS011;59983;52.010;5.420;2023-03-31T17:38:24;5.30;;;5.10;;
72109;SDS011;59983;52.010;5.420;2023-03-31T17:40:51;6.50;;;6.20;;
72109;SDS011;59983;52.010;5.420;2023-03-31T17:43:19;5.40;;;4.97;;
72109;SDS011;59983;52.010;5.420;2023-03-31T17:45:46;6.25;;;5.72;;
72109;SDS011;59983;52.010;5.420;2023-03-31T17:48:13;6.22;;;5.82;;
72109;SDS011;59983;52.010;5.420;2023-03-31T17:50:41;6.32;;;5.95;;
72109;SDS011;59983;52.010;5.420;2023-03-31T17:53:08;5.37;;;5.07;;
72109;SDS011;59983;52.010;5.420;2023-03-31T17:55:35;5.57;;;5.20;;
72109;SDS011;59983;52.010;5.420;2023-03-31T17:58:04;5.13;;;4.82;;
72109;SDS011;59983;52.010;5.420;2023-03-31T18:00:31;5.05;;;4.85;;
72109;SDS011;59983;52.010;5.420;2023-03-31T18:02:58;5.25;;;4.95;;
72109;SDS011;59983;52.010;5.420;2023-03-31T18:05:24;5.40;;;5.10;;
72109;SDS011;59983;52.010;5.420;2023-03-31T18:07:52;5.25;;;5.03;;